sensor_id;sensor_type;location;lat;lon;timestamp;temperature;humidity
66582;SHT31;53438;48.898;2.308;2022-10-31T00:02:20;17.06;69.79
66582;SHT31;53438;48.898;2.308;2022-10-31T00:04:45;17.06;69.77
66582;SHT31;53438;48.898;2.308;2022-10-31T00:07:11;17.14;69.68
66582;SHT31;53438;48.898;2.308;2022-10-31T00:09:36;17.08;69.58
66582;SHT31;53438;48.898;2.308;2022-10-31T00:12:01;17.03;69.90
66582;SHT31;53438;48.898;2.308;2022-10-31T00:14:27;17.04;69.88
66582;SHT31;53438;48.898;2.308;2022-10-31T00:16:52;17.07;69.85
66582;SHT31;53438;48.898;2.308;2022-10-31T00:19:17;17.14;69.70
66582;SHT31;53438;48.898;2.308;2022-10-31T00:21:43;17.12;69.76
66582;SHT31;53438;48.898;2.308;2022-10-31T00:24:08;17.07;69.89
66582;SHT31;53438;48.898;2.308;2022-10-31T00:26:34;17.08;69.81
66582;SHT31;53438;48.898;2.308;2022-10-31T00:29:00;17.01;69.88
66582;SHT31;53438;48.898;2.308;2022-10-31T00:31:27;17.03;69.96
66582;SHT31;53438;48.898;2.308;2022-10-31T00:33:54;17.01;69.96
66582;SHT31;53438;48.898;2.308;2022-10-31T00:36:20;16.94;70.16
66582;SHT31;53438;48.898;2.308;2022-10-31T00:38:46;16.80;70.53
66582;SHT31;53438;48.898;2.308;2022-10-31T00:41:13;16.87;70.29
66582;SHT31;53438;48.898;2.308;2022-10-31T00:43:39;16.91;70.30
66582;SHT31;53438;48.898;2.308;2022-10-31T00:46:04;16.88;70.29
66582;SHT31;53438;48.898;2.308;2022-10-31T00:48:30;16.88;70.31
66582;SHT31;53438;48.898;2.308;2022-10-31T00:50:56;16.97;70.22
66582;SHT31;53438;48.898;2.308;2022-10-31T00:53:22;16.95;70.21
66582;SHT31;53438;48.898;2.308;2022-10-31T00:55:47;17.01;70.08
66582;SHT31;53438;48.898;2.308;2022-10-31T00:58:13;17.01;70.01
66582;SHT31;53438;48.898;2.308;2022-10-31T04:00:57;16.08;73.52
66582;SHT31;53438;48.898;2.308;2022-10-31T04:03:27;16.09;73.71
66582;SHT31;53438;48.898;2.308;2022-10-31T04:05:56;16.15;73.45
66582;SHT31;53438;48.898;2.308;2022-10-31T04:08:27;16.13;73.48
66582;SHT31;53438;48.898;2.308;2022-10-31T04:10:54;16.13;73.70
66582;SHT31;53438;48.898;2.308;2022-10-31T04:13:28;16.01;73.90
66582;SHT31;53438;48.898;2.308;2022-10-31T04:15:54;16.04;73.74
66582;SHT31;53438;48.898;2.308;2022-10-31T04:18:22;16.06;73.71
66582;SHT31;53438;48.898;2.308;2022-10-31T04:20:48;16.01;73.88
66582;SHT31;53438;48.898;2.308;2022-10-31T04:23:20;16.09;73.90
66582;SHT31;53438;48.898;2.308;2022-10-31T04:25:47;15.99;74.13
66582;SHT31;53438;48.898;2.308;2022-10-31T04:28:12;15.97;74.21
66582;SHT31;53438;48.898;2.308;2022-10-31T04:30:38;15.97;74.22
66582;SHT31;53438;48.898;2.308;2022-10-31T04:33:03;16.05;74.06
66582;SHT31;53438;48.898;2.308;2022-10-31T04:35:28;15.99;74.34
66582;SHT31;53438;48.898;2.308;2022-10-31T04:37:54;15.95;74.36
66582;SHT31;53438;48.898;2.308;2022-10-31T04:40:19;15.91;74.46
66582;SHT31;53438;48.898;2.308;2022-10-31T04:42:44;15.91;74.49
66582;SHT31;53438;48.898;2.308;2022-10-31T04:45:10;16.04;74.13
66582;SHT31;53438;48.898;2.308;2022-10-31T04:47:35;15.99;74.17
66582;SHT31;53438;48.898;2.308;2022-10-31T04:50:01;15.85;74.64
66582;SHT31;53438;48.898;2.308;2022-10-31T04:52:27;15.88;74.80
66582;SHT31;53438;48.898;2.308;2022-10-31T04:54:52;15.94;74.40
66582;SHT31;53438;48.898;2.308;2022-10-31T04:57:18;15.98;74.38
66582;SHT31;53438;48.898;2.308;2022-10-31T04:59:43;15.99;74.25
66582;SHT31;53438;48.898;2.308;2022-10-31T05:02:08;15.99;74.26
66582;SHT31;53438;48.898;2.308;2022-10-31T05:04:34;15.88;74.74
66582;SHT31;53438;48.898;2.308;2022-10-31T05:06:59;15.90;74.68
66582;SHT31;53438;48.898;2.308;2022-10-31T05:09:24;15.99;74.49
66582;SHT31;53438;48.898;2.308;2022-10-31T05:11:50;15.98;74.39
66582;SHT31;53438;48.898;2.308;2022-10-31T05:14:15;15.95;74.60
66582;SHT31;53438;48.898;2.308;2022-10-31T05:16:40;15.81;74.81
66582;SHT31;53438;48.898;2.308;2022-10-31T05:19:06;15.88;74.73
66582;SHT31;53438;48.898;2.308;2022-10-31T05:21:31;15.82;75.03
66582;SHT31;53438;48.898;2.308;2022-10-31T05:23:56;15.90;74.90
66582;SHT31;53438;48.898;2.308;2022-10-31T05:26:22;15.88;74.84
66582;SHT31;53438;48.898;2.308;2022-10-31T05:28:47;15.78;75.17
66582;SHT31;53438;48.898;2.308;2022-10-31T05:31:13;15.77;75.16
66582;SHT31;53438;48.898;2.308;2022-10-31T05:33:39;15.88;74.71
66582;SHT31;53438;48.898;2.308;2022-10-31T05:36:04;15.88;74.87
66582;SHT31;53438;48.898;2.308;2022-10-31T05:38:30;15.71;75.24
66582;SHT31;53438;48.898;2.308;2022-10-31T05:40:55;15.81;75.11
66582;SHT31;53438;48.898;2.308;2022-10-31T05:43:26;15.82;75.06
66582;SHT31;53438;48.898;2.308;2022-10-31T05:45:54;15.75;75.12
66582;SHT31;53438;48.898;2.308;2022-10-31T05:48:19;15.72;75.22
66582;SHT31;53438;48.898;2.308;2022-10-31T05:50:44;15.72;75.35
66582;SHT31;53438;48.898;2.308;2022-10-31T05:53:10;15.77;75.20
66582;SHT31;53438;48.898;2.308;2022-10-31T05:55:35;15.70;75.48
66582;SHT31;53438;48.898;2.308;2022-10-31T05:58:01;15.81;75.12
66582;SHT31;53438;48.898;2.308;2022-10-31T06:00:27;15.81;75.28
66582;SHT31;53438;48.898;2.308;2022-10-31T06:03:04;15.87;74.90
66582;SHT31;53438;48.898;2.308;2022-10-31T06:05:30;15.92;74.72
66582;SHT31;53438;48.898;2.308;2022-10-31T06:07:56;15.92;74.71
66582;SHT31;53438;48.898;2.308;2022-10-31T06:10:21;15.92;74.68
66582;SHT31;53438;48.898;2.308;2022-10-31T06:12:47;15.98;74.55
66582;SHT31;53438;48.898;2.308;2022-10-31T06:15:13;15.95;74.58
66582;SHT31;53438;48.898;2.308;2022-10-31T06:17:38;15.97;74.54
66582;SHT31;53438;48.898;2.308;2022-10-31T06:20:05;16.04;74.21
66582;SHT31;53438;48.898;2.308;2022-10-31T06:22:30;15.99;74.45
66582;SHT31;53438;48.898;2.308;2022-10-31T06:24:56;16.01;74.23
66582;SHT31;53438;48.898;2.308;2022-10-31T06:27:21;15.92;74.45
66582;SHT31;53438;48.898;2.308;2022-10-31T06:29:47;15.92;74.58
66582;SHT31;53438;48.898;2.308;2022-10-31T06:32:13;16.02;74.10
66582;SHT31;53438;48.898;2.308;2022-10-31T06:34:39;16.05;73.95
66582;SHT31;53438;48.898;2.308;2022-10-31T06:37:09;16.11;73.45
66582;SHT31;53438;48.898;2.308;2022-10-31T06:39:34;16.15;73.22
66582;SHT31;53438;48.898;2.308;2022-10-31T06:42:00;16.11;73.62
66582;SHT31;53438;48.898;2.308;2022-10-31T06:44:25;16.09;73.46
66582;SHT31;53438;48.898;2.308;2022-10-31T06:46:51;16.01;73.84
66582;SHT31;53438;48.898;2.308;2022-10-31T06:49:16;15.99;73.89
66582;SHT31;53438;48.898;2.308;2022-10-31T06:51:42;16.01;73.46
66582;SHT31;53438;48.898;2.308;2022-10-31T06:54:08;16.06;73.46
66582;SHT31;53438;48.898;2.308;2022-10-31T06:56:34;16.18;73.21
66582;SHT31;53438;48.898;2.308;2022-10-31T06:58:59;16.23;72.95
66582;SHT31;53438;48.898;2.308;2022-10-31T07:01:25;16.16;73.23
66582;SHT31;53438;48.898;2.308;2022-10-31T07:03:50;16.15;73.36
66582;SHT31;53438;48.898;2.308;2022-10-31T07:06:17;16.12;73.56
66582;SHT31;53438;48.898;2.308;2022-10-31T07:08:42;16.19;73.23
66582;SHT31;53438;48.898;2.308;2022-10-31T07:11:07;16.09;73.63
66582;SHT31;53438;48.898;2.308;2022-10-31T07:13:33;16.15;73.60
66582;SHT31;53438;48.898;2.308;2022-10-31T07:16:03;16.25;73.39
66582;SHT31;53438;48.898;2.308;2022-10-31T07:18:29;16.15;73.59
66582;SHT31;53438;48.898;2.308;2022-10-31T07:20:54;16.02;74.18
66582;SHT31;53438;48.898;2.308;2022-10-31T07:23:20;16.04;74.18
66582;SHT31;53438;48.898;2.308;2022-10-31T07:25:45;16.15;73.97
66582;SHT31;53438;48.898;2.308;2022-10-31T07:28:11;16.22;73.65
66582;SHT31;53438;48.898;2.308;2022-10-31T07:30:37;16.28;73.56
66582;SHT31;53438;48.898;2.308;2022-10-31T07:33:04;16.32;73.53
66582;SHT31;53438;48.898;2.308;2022-10-31T07:35:29;16.11;74.13
66582;SHT31;53438;48.898;2.308;2022-10-31T07:37:55;16.16;73.97
66582;SHT31;53438;48.898;2.308;2022-10-31T07:40:21;16.34;73.46
66582;SHT31;53438;48.898;2.308;2022-10-31T07:42:49;16.25;73.78
66582;SHT31;53438;48.898;2.308;2022-10-31T07:45:17;16.12;74.17
66582;SHT31;53438;48.898;2.308;2022-10-31T07:47:52;16.23;73.81
66582;SHT31;53438;48.898;2.308;2022-10-31T07:50:20;16.23;73.87
66582;SHT31;53438;48.898;2.308;2022-10-31T07:52:46;16.13;74.12
66582;SHT31;53438;48.898;2.308;2022-10-31T07:55:12;16.08;74.37
66582;SHT31;53438;48.898;2.308;2022-10-31T07:57:37;16.09;74.52
66582;SHT31;53438;48.898;2.308;2022-10-31T08:00:12;16.06;74.44
66582;SHT31;53438;48.898;2.308;2022-10-31T08:02:37;16.13;74.27
66582;SHT31;53438;48.898;2.308;2022-10-31T08:05:03;16.20;74.14
66582;SHT31;53438;48.898;2.308;2022-10-31T08:07:28;16.05;74.40
66582;SHT31;53438;48.898;2.308;2022-10-31T08:09:54;16.11;74.50
66582;SHT31;53438;48.898;2.308;2022-10-31T08:12:20;16.04;74.61
66582;SHT31;53438;48.898;2.308;2022-10-31T08:14:46;16.12;74.47
66582;SHT31;53438;48.898;2.308;2022-10-31T08:17:12;16.20;74.20
66582;SHT31;53438;48.898;2.308;2022-10-31T08:19:38;16.19;73.96
66582;SHT31;53438;48.898;2.308;2022-10-31T08:22:03;16.18;74.08
66582;SHT31;53438;48.898;2.308;2022-10-31T08:24:28;16.19;74.07
66582;SHT31;53438;48.898;2.308;2022-10-31T08:26:54;16.15;74.49
66582;SHT31;53438;48.898;2.308;2022-10-31T08:29:19;16.12;74.47
66582;SHT31;53438;48.898;2.308;2022-10-31T08:31:44;16.22;74.11
66582;SHT31;53438;48.898;2.308;2022-10-31T08:34:10;16.06;74.59
66582;SHT31;53438;48.898;2.308;2022-10-31T08:36:35;16.08;74.70
66582;SHT31;53438;48.898;2.308;2022-10-31T08:39:01;16.08;74.90
66582;SHT31;53438;48.898;2.308;2022-10-31T08:41:27;15.98;75.11
66582;SHT31;53438;48.898;2.308;2022-10-31T08:43:52;16.13;74.89
66582;SHT31;53438;48.898;2.308;2022-10-31T08:46:18;16.16;74.73
66582;SHT31;53438;48.898;2.308;2022-10-31T08:48:43;16.20;74.80
66582;SHT31;53438;48.898;2.308;2022-10-31T08:51:09;16.18;74.89
66582;SHT31;53438;48.898;2.308;2022-10-31T08:53:35;16.16;74.86
66582;SHT31;53438;48.898;2.308;2022-10-31T08:56:00;16.19;74.74
66582;SHT31;53438;48.898;2.308;2022-10-31T08:58:26;16.13;74.90
66582;SHT31;53438;48.898;2.308;2022-10-31T09:00:52;16.22;74.58
66582;SHT31;53438;48.898;2.308;2022-10-31T09:03:28;16.23;74.75
66582;SHT31;53438;48.898;2.308;2022-10-31T09:05:59;16.38;74.46
66582;SHT31;53438;48.898;2.308;2022-10-31T09:08:25;16.33;74.33
66582;SHT31;53438;48.898;2.308;2022-10-31T09:10:51;16.46;74.17
66582;SHT31;53438;48.898;2.308;2022-10-31T09:13:20;16.43;74.18
66582;SHT31;53438;48.898;2.308;2022-10-31T09:15:48;16.49;73.93
66582;SHT31;53438;48.898;2.308;2022-10-31T09:18:16;16.46;74.07
66582;SHT31;53438;48.898;2.308;2022-10-31T09:20:43;16.49;74.11
66582;SHT31;53438;48.898;2.308;2022-10-31T09:23:12;16.45;74.06
66582;SHT31;53438;48.898;2.308;2022-10-31T09:25:38;16.55;73.74
66582;SHT31;53438;48.898;2.308;2022-10-31T09:28:05;16.43;74.11
66582;SHT31;53438;48.898;2.308;2022-10-31T09:30:33;16.48;74.05
66582;SHT31;53438;48.898;2.308;2022-10-31T09:33:03;16.70;73.44
66582;SHT31;53438;48.898;2.308;2022-10-31T09:35:29;16.77;73.25
66582;SHT31;53438;48.898;2.308;2022-10-31T09:38:00;16.81;73.10
66582;SHT31;53438;48.898;2.308;2022-10-31T09:40:46;16.90;72.81
66582;SHT31;53438;48.898;2.308;2022-10-31T09:46:00;17.07;72.58
66582;SHT31;53438;48.898;2.308;2022-10-31T09:48:55;17.18;72.21
66582;SHT31;53438;48.898;2.308;2022-10-31T09:51:28;17.18;72.20
66582;SHT31;53438;48.898;2.308;2022-10-31T09:54:02;17.31;71.90
66582;SHT31;53438;48.898;2.308;2022-10-31T09:56:31;17.38;71.52
66582;SHT31;53438;48.898;2.308;2022-10-31T09:58:58;17.45;71.16
66582;SHT31;53438;48.898;2.308;2022-10-31T10:06:57;17.65;70.66
66582;SHT31;53438;48.898;2.308;2022-10-31T10:09:26;17.68;70.45
66582;SHT31;53438;48.898;2.308;2022-10-31T10:17:54;17.83;69.72
66582;SHT31;53438;48.898;2.308;2022-10-31T10:20:33;17.80;69.85
66582;SHT31;53438;48.898;2.308;2022-10-31T10:28:40;17.97;69.32
66582;SHT31;53438;48.898;2.308;2022-10-31T10:31:23;17.99;69.28
66582;SHT31;53438;48.898;2.308;2022-10-31T10:34:06;18.09;68.89
66582;SHT31;53438;48.898;2.308;2022-10-31T10:36:43;18.09;68.77
66582;SHT31;53438;48.898;2.308;2022-10-31T10:39:30;18.10;68.76
66582;SHT31;53438;48.898;2.308;2022-10-31T10:41:57;18.16;68.67
66582;SHT31;53438;48.898;2.308;2022-10-31T10:44:49;18.23;68.08
66582;SHT31;53438;48.898;2.308;2022-10-31T10:47:42;18.31;68.05
66582;SHT31;53438;48.898;2.308;2022-10-31T10:50:27;18.38;67.69
66582;SHT31;53438;48.898;2.308;2022-10-31T10:55:56;18.55;67.57
66582;SHT31;53438;48.898;2.308;2022-10-31T10:58:23;18.59;66.86
66582;SHT31;53438;48.898;2.308;2022-10-31T11:00:50;18.64;66.93
66582;SHT31;53438;48.898;2.308;2022-10-31T11:03:17;18.71;66.35
66582;SHT31;53438;48.898;2.308;2022-10-31T11:05:53;18.78;66.62
66582;SHT31;53438;48.898;2.308;2022-10-31T11:11:22;18.92;66.04
66582;SHT31;53438;48.898;2.308;2022-10-31T11:13:56;19.02;66.00
66582;SHT31;53438;48.898;2.308;2022-10-31T11:16:32;19.06;65.74
66582;SHT31;53438;48.898;2.308;2022-10-31T11:21:34;19.19;65.50
66582;SHT31;53438;48.898;2.308;2022-10-31T11:24:07;19.16;65.40
66582;SHT31;53438;48.898;2.308;2022-10-31T11:26:37;19.17;65.44
66582;SHT31;53438;48.898;2.308;2022-10-31T11:29:04;19.27;65.08
66582;SHT31;53438;48.898;2.308;2022-10-31T11:31:31;19.33;64.35
66582;SHT31;53438;48.898;2.308;2022-10-31T11:34:03;19.40;64.41
66582;SHT31;53438;48.898;2.308;2022-10-31T11:36:36;19.50;64.20
66582;SHT31;53438;48.898;2.308;2022-10-31T11:39:04;19.53;64.11
66582;SHT31;53438;48.898;2.308;2022-10-31T11:41:33;19.56;63.95
66582;SHT31;53438;48.898;2.308;2022-10-31T11:44:13;19.53;63.82
66582;SHT31;53438;48.898;2.308;2022-10-31T11:46:45;19.57;63.45
66582;SHT31;53438;48.898;2.308;2022-10-31T11:49:35;19.64;62.92
66582;SHT31;53438;48.898;2.308;2022-10-31T11:52:05;19.64;63.12
66582;SHT31;53438;48.898;2.308;2022-10-31T11:54:49;19.71;62.50
66582;SHT31;53438;48.898;2.308;2022-10-31T11:57:43;19.81;62.31
66582;SHT31;53438;48.898;2.308;2022-10-31T12:00:36;19.81;62.22
66582;SHT31;53438;48.898;2.308;2022-10-31T12:06:08;19.84;62.49
66582;SHT31;53438;48.898;2.308;2022-10-31T12:08:38;19.81;62.92
66582;SHT31;53438;48.898;2.308;2022-10-31T12:11:41;19.79;63.12
66582;SHT31;53438;48.898;2.308;2022-10-31T12:14:18;19.91;63.25
66582;SHT31;53438;48.898;2.308;2022-10-31T12:25:19;19.97;63.65
66582;SHT31;53438;48.898;2.308;2022-10-31T12:30:54;19.99;63.50
66582;SHT31;53438;48.898;2.308;2022-10-31T12:36:36;19.99;63.24
66582;SHT31;53438;48.898;2.308;2022-10-31T12:39:13;20.05;63.46
66582;SHT31;53438;48.898;2.308;2022-10-31T12:41:51;20.01;63.49
66582;SHT31;53438;48.898;2.308;2022-10-31T12:50:28;20.14;63.13
66582;SHT31;53438;48.898;2.308;2022-10-31T12:55:40;20.22;62.95
66582;SHT31;53438;48.898;2.308;2022-10-31T12:58:17;20.24;62.83
66582;SHT31;53438;48.898;2.308;2022-10-31T13:00:46;20.30;62.71
66582;SHT31;53438;48.898;2.308;2022-10-31T13:03:24;20.35;62.74
66582;SHT31;53438;48.898;2.308;2022-10-31T13:05:56;20.33;63.12
66582;SHT31;53438;48.898;2.308;2022-10-31T13:11:09;20.24;63.77
66582;SHT31;53438;48.898;2.308;2022-10-31T13:16:13;20.47;63.22
66582;SHT31;53438;48.898;2.308;2022-10-31T13:18:47;20.43;63.52
66582;SHT31;53438;48.898;2.308;2022-10-31T13:21:38;20.47;63.68
66582;SHT31;53438;48.898;2.308;2022-10-31T13:24:12;20.50;63.75
66582;SHT31;53438;48.898;2.308;2022-10-31T13:29:17;20.65;63.31
66582;SHT31;53438;48.898;2.308;2022-10-31T13:31:44;20.62;63.49
66582;SHT31;53438;48.898;2.308;2022-10-31T13:34:25;20.57;63.72
66582;SHT31;53438;48.898;2.308;2022-10-31T13:44:53;20.49;64.22
66582;SHT31;53438;48.898;2.308;2022-10-31T13:49:47;20.62;63.91
66582;SHT31;53438;48.898;2.308;2022-10-31T13:52:15;20.69;63.65
66582;SHT31;53438;48.898;2.308;2022-10-31T13:54:43;20.70;63.62
66582;SHT31;53438;48.898;2.308;2022-10-31T13:57:22;20.72;63.53
66582;SHT31;53438;48.898;2.308;2022-10-31T13:59:51;20.70;63.63
66582;SHT31;53438;48.898;2.308;2022-10-31T14:02:29;20.75;63.52
66582;SHT31;53438;48.898;2.308;2022-10-31T14:05:02;20.66;64.03
66582;SHT31;53438;48.898;2.308;2022-10-31T14:07:28;20.63;64.12
66582;SHT31;53438;48.898;2.308;2022-10-31T14:12:48;20.59;64.31
66582;SHT31;53438;48.898;2.308;2022-10-31T14:15:20;20.56;64.37
66582;SHT31;53438;48.898;2.308;2022-10-31T14:17:49;20.50;64.67
66582;SHT31;53438;48.898;2.308;2022-10-31T14:22:40;20.49;64.66
66582;SHT31;53438;48.898;2.308;2022-10-31T14:27:50;20.53;64.62
66582;SHT31;53438;48.898;2.308;2022-10-31T14:30:19;20.52;64.72
66582;SHT31;53438;48.898;2.308;2022-10-31T14:33:16;20.43;65.09
66582;SHT31;53438;48.898;2.308;2022-10-31T14:35:53;20.50;65.06
66582;SHT31;53438;48.898;2.308;2022-10-31T14:44:10;20.43;65.21
66582;SHT31;53438;48.898;2.308;2022-10-31T14:52:01;20.35;65.59
66582;SHT31;53438;48.898;2.308;2022-10-31T14:54:38;20.37;65.44
66582;SHT31;53438;48.898;2.308;2022-10-31T14:57:23;20.36;65.59
66582;SHT31;53438;48.898;2.308;2022-10-31T15:00:07;20.36;65.51
66582;SHT31;53438;48.898;2.308;2022-10-31T15:02:46;20.46;65.54
66582;SHT31;53438;48.898;2.308;2022-10-31T15:05:15;20.42;65.48
66582;SHT31;53438;48.898;2.308;2022-10-31T15:07:52;20.37;65.69
66582;SHT31;53438;48.898;2.308;2022-10-31T15:10:30;20.53;65.43
66582;SHT31;53438;48.898;2.308;2022-10-31T15:13:08;20.49;65.41
66582;SHT31;53438;48.898;2.308;2022-10-31T15:15:34;20.55;65.26
66582;SHT31;53438;48.898;2.308;2022-10-31T15:18:00;20.45;65.71
66582;SHT31;53438;48.898;2.308;2022-10-31T15:20:28;20.47;65.76
66582;SHT31;53438;48.898;2.308;2022-10-31T15:22:58;20.47;65.59
66582;SHT31;53438;48.898;2.308;2022-10-31T15:25:28;20.37;65.98
66582;SHT31;53438;48.898;2.308;2022-10-31T15:27:55;20.35;66.05
66582;SHT31;53438;48.898;2.308;2022-10-31T15:30:26;20.35;66.20
66582;SHT31;53438;48.898;2.308;2022-10-31T15:32:52;20.42;66.39
66582;SHT31;53438;48.898;2.308;2022-10-31T15:35:26;20.30;66.38
66582;SHT31;53438;48.898;2.308;2022-10-31T15:37:53;20.46;65.82
66582;SHT31;53438;48.898;2.308;2022-10-31T15:40:20;20.57;65.47
66582;SHT31;53438;48.898;2.308;2022-10-31T15:42:53;20.57;65.49
66582;SHT31;53438;48.898;2.308;2022-10-31T15:45:22;20.53;65.70
66582;SHT31;53438;48.898;2.308;2022-10-31T15:48:00;20.55;65.45
66582;SHT31;53438;48.898;2.308;2022-10-31T15:50:36;20.62;65.26
66582;SHT31;53438;48.898;2.308;2022-10-31T15:53:04;20.63;65.16
66582;SHT31;53438;48.898;2.308;2022-10-31T15:55:35;20.57;65.31
66582;SHT31;53438;48.898;2.308;2022-10-31T15:58:03;20.47;65.42
66582;SHT31;53438;48.898;2.308;2022-10-31T16:00:36;20.56;65.27
66582;SHT31;53438;48.898;2.308;2022-10-31T16:05:43;20.57;65.20
66582;SHT31;53438;48.898;2.308;2022-10-31T16:13:37;20.66;64.67
66582;SHT31;53438;48.898;2.308;2022-10-31T16:16:13;20.55;64.81
66582;SHT31;53438;48.898;2.308;2022-10-31T16:18:40;20.45;64.99
66582;SHT31;53438;48.898;2.308;2022-10-31T16:21:08;20.45;64.73
66582;SHT31;53438;48.898;2.308;2022-10-31T16:23:34;20.55;64.42
66582;SHT31;53438;48.898;2.308;2022-10-31T16:26:05;20.50;64.31
66582;SHT31;53438;48.898;2.308;2022-10-31T16:28:31;20.53;64.30
66582;SHT31;53438;48.898;2.308;2022-10-31T16:30:58;20.46;64.32
66582;SHT31;53438;48.898;2.308;2022-10-31T16:33:28;20.39;64.70
66582;SHT31;53438;48.898;2.308;2022-10-31T16:35:57;20.49;64.10
66582;SHT31;53438;48.898;2.308;2022-10-31T16:38:23;20.45;64.02
66582;SHT31;53438;48.898;2.308;2022-10-31T16:40:49;20.47;63.93
66582;SHT31;53438;48.898;2.308;2022-10-31T16:43:16;20.46;63.81
66582;SHT31;53438;48.898;2.308;2022-10-31T16:45:47;20.52;64.32
66582;SHT31;53438;48.898;2.308;2022-10-31T16:48:16;20.40;64.50
66582;SHT31;53438;48.898;2.308;2022-10-31T16:50:43;20.46;64.22
66582;SHT31;53438;48.898;2.308;2022-10-31T16:53:09;20.40;65.04
66582;SHT31;53438;48.898;2.308;2022-10-31T16:55:42;20.35;65.81
66582;SHT31;53438;48.898;2.308;2022-10-31T16:58:22;20.30;65.75
66582;SHT31;53438;48.898;2.308;2022-10-31T17:00:48;20.18;66.13
66582;SHT31;53438;48.898;2.308;2022-10-31T17:03:14;20.25;65.51
66582;SHT31;53438;48.898;2.308;2022-10-31T17:05:39;20.26;65.50
66582;SHT31;53438;48.898;2.308;2022-10-31T17:08:05;20.18;65.69
66582;SHT31;53438;48.898;2.308;2022-10-31T17:10:30;20.14;66.12
66582;SHT31;53438;48.898;2.308;2022-10-31T17:12:56;20.30;65.78
66582;SHT31;53438;48.898;2.308;2022-10-31T17:15:25;20.19;67.60
66582;SHT31;53438;48.898;2.308;2022-10-31T17:17:51;19.98;68.60
66582;SHT31;53438;48.898;2.308;2022-10-31T17:20:20;19.77;69.08
66582;SHT31;53438;48.898;2.308;2022-10-31T17:22:46;19.71;68.91
66582;SHT31;53438;48.898;2.308;2022-10-31T17:25:14;19.77;69.00
66582;SHT31;53438;48.898;2.308;2022-10-31T17:27:40;19.68;68.18
66582;SHT31;53438;48.898;2.308;2022-10-31T17:30:06;19.67;68.97
66582;SHT31;53438;48.898;2.308;2022-10-31T17:32:31;19.74;69.35
66582;SHT31;53438;48.898;2.308;2022-10-31T17:34:57;19.68;70.31
66582;SHT31;53438;48.898;2.308;2022-10-31T17:37:22;19.60;70.64
66582;SHT31;53438;48.898;2.308;2022-10-31T17:39:47;19.50;70.86
66582;SHT31;53438;48.898;2.308;2022-10-31T17:42:13;19.39;70.83
66582;SHT31;53438;48.898;2.308;2022-10-31T17:44:38;19.31;71.14
66582;SHT31;53438;48.898;2.308;2022-10-31T17:47:03;19.30;71.90
66582;SHT31;53438;48.898;2.308;2022-10-31T17:49:29;19.26;72.13
66582;SHT31;53438;48.898;2.308;2022-10-31T17:51:54;19.23;72.24
66582;SHT31;53438;48.898;2.308;2022-10-31T17:54:20;19.22;71.96
66582;SHT31;53438;48.898;2.308;2022-10-31T17:56:47;19.15;72.17
66582;SHT31;53438;48.898;2.308;2022-10-31T17:59:12;19.12;72.48
66582;SHT31;53438;48.898;2.308;2022-10-31T18:01:38;19.06;73.03
66582;SHT31;53438;48.898;2.308;2022-10-31T18:04:03;18.95;73.55
66582;SHT31;53438;48.898;2.308;2022-10-31T18:06:29;18.96;74.46
66582;SHT31;53438;48.898;2.308;2022-10-31T18:08:54;18.91;74.22
66582;SHT31;53438;48.898;2.308;2022-10-31T18:11:22;18.86;74.42
66582;SHT31;53438;48.898;2.308;2022-10-31T18:13:53;18.84;74.43
66582;SHT31;53438;48.898;2.308;2022-10-31T18:16:19;18.81;74.50
66582;SHT31;53438;48.898;2.308;2022-10-31T18:18:51;18.86;74.68
66582;SHT31;53438;48.898;2.308;2022-10-31T18:21:17;18.78;74.85
66582;SHT31;53438;48.898;2.308;2022-10-31T18:23:43;18.76;75.21
66582;SHT31;53438;48.898;2.308;2022-10-31T18:26:08;18.76;75.11
66582;SHT31;53438;48.898;2.308;2022-10-31T18:28:35;18.73;75.73
66582;SHT31;53438;48.898;2.308;2022-10-31T18:31:01;18.65;75.63
66582;SHT31;53438;48.898;2.308;2022-10-31T18:33:26;18.62;75.82
66582;SHT31;53438;48.898;2.308;2022-10-31T18:35:52;18.49;76.46
66582;SHT31;53438;48.898;2.308;2022-10-31T18:38:17;18.69;76.27
66582;SHT31;53438;48.898;2.308;2022-10-31T18:40:43;18.68;76.14
66582;SHT31;53438;48.898;2.308;2022-10-31T18:43:08;18.64;76.59
66582;SHT31;53438;48.898;2.308;2022-10-31T18:45:33;18.59;77.08
66582;SHT31;53438;48.898;2.308;2022-10-31T18:47:59;18.55;77.10
66582;SHT31;53438;48.898;2.308;2022-10-31T18:50:24;18.45;77.05
66582;SHT31;53438;48.898;2.308;2022-10-31T18:52:50;18.71;76.44
66582;SHT31;53438;48.898;2.308;2022-10-31T18:55:15;18.61;77.58
66582;SHT31;53438;48.898;2.308;2022-10-31T18:57:40;18.54;77.72
66582;SHT31;53438;48.898;2.308;2022-10-31T19:00:06;18.43;77.91
66582;SHT31;53438;48.898;2.308;2022-10-31T19:02:32;18.38;78.06
66582;SHT31;53438;48.898;2.308;2022-10-31T19:04:57;18.52;77.29
66582;SHT31;53438;48.898;2.308;2022-10-31T19:07:22;18.54;77.43
66582;SHT31;53438;48.898;2.308;2022-10-31T19:09:48;18.41;77.82
66582;SHT31;53438;48.898;2.308;2022-10-31T19:12:13;18.54;76.79
66582;SHT31;53438;48.898;2.308;2022-10-31T19:14:39;18.57;76.48
66582;SHT31;53438;48.898;2.308;2022-10-31T19:17:04;18.49;76.41
66582;SHT31;53438;48.898;2.308;2022-10-31T19:19:29;18.45;76.72
66582;SHT31;53438;48.898;2.308;2022-10-31T19:21:55;18.54;76.39
66582;SHT31;53438;48.898;2.308;2022-10-31T19:24:21;18.34;76.37
66582;SHT31;53438;48.898;2.308;2022-10-31T19:26:46;18.38;76.64
66582;SHT31;53438;48.898;2.308;2022-10-31T19:29:12;18.51;75.42
66582;SHT31;53438;48.898;2.308;2022-10-31T19:31:37;18.38;76.24
66582;SHT31;53438;48.898;2.308;2022-10-31T19:34:03;18.37;76.30
66582;SHT31;53438;48.898;2.308;2022-10-31T19:36:28;18.51;75.79
66582;SHT31;53438;48.898;2.308;2022-10-31T19:38:54;18.40;75.75
66582;SHT31;53438;48.898;2.308;2022-10-31T19:41:24;18.44;75.82
66582;SHT31;53438;48.898;2.308;2022-10-31T19:43:51;18.43;75.59
66582;SHT31;53438;48.898;2.308;2022-10-31T19:46:18;18.31;75.89
66582;SHT31;53438;48.898;2.308;2022-10-31T19:48:44;18.40;75.87
66582;SHT31;53438;48.898;2.308;2022-10-31T19:51:11;18.58;75.39
66582;SHT31;53438;48.898;2.308;2022-10-31T19:53:37;18.45;75.43
66582;SHT31;53438;48.898;2.308;2022-10-31T19:56:04;18.33;75.81
66582;SHT31;53438;48.898;2.308;2022-10-31T19:58:34;18.40;75.46
66582;SHT31;53438;48.898;2.308;2022-10-31T20:01:05;18.43;75.33
66582;SHT31;53438;48.898;2.308;2022-10-31T20:03:31;18.55;74.67
66582;SHT31;53438;48.898;2.308;2022-10-31T20:05:56;18.54;74.55
66582;SHT31;53438;48.898;2.308;2022-10-31T20:08:21;18.45;75.27
66582;SHT31;53438;48.898;2.308;2022-10-31T20:10:58;18.54;75.04
66582;SHT31;53438;48.898;2.308;2022-10-31T20:13:24;18.45;75.16
66582;SHT31;53438;48.898;2.308;2022-10-31T20:15:50;18.44;74.90
66582;SHT31;53438;48.898;2.308;2022-10-31T20:18:16;18.36;75.43
66582;SHT31;53438;48.898;2.308;2022-10-31T20:20:41;18.31;75.25